sensor_id;sensor_type;location;lat;lon;timestamp;temperature;humidity
33988;DHT22;37428;53.580;-1.666;2023-01-26T00:01:13;3.10;85.90
33988;DHT22;37428;53.580;-1.666;2023-01-26T00:04:18;3.10;85.80
33988;DHT22;37428;53.580;-1.666;2023-01-26T00:07:20;3.10;85.80
33988;DHT22;37428;53.580;-1.666;2023-01-26T00:10:22;3.10;86.10
33988;DHT22;37428;53.580;-1.666;2023-01-26T00:13:25;3.10;85.70
33988;DHT22;37428;53.580;-1.666;2023-01-26T00:16:27;3.00;85.80
33988;DHT22;37428;53.580;-1.666;2023-01-26T00:19:31;2.90;85.90
33988;DHT22;37428;53.580;-1.666;2023-01-26T00:22:33;2.90;86.20
33988;DHT22;37428;53.580;-1.666;2023-01-26T00:25:37;2.90;86.10
33988;DHT22;37428;53.580;-1.666;2023-01-26T00:28:40;2.90;86.10
33988;DHT22;37428;53.580;-1.666;2023-01-26T00:31:43;2.90;86.50
33988;DHT22;37428;53.580;-1.666;2023-01-26T00:34:46;2.90;86.00
33988;DHT22;37428;53.580;-1.666;2023-01-26T00:37:49;3.00;86.10
33988;DHT22;37428;53.580;-1.666;2023-01-26T00:40:51;3.00;85.90
33988;DHT22;37428;53.580;-1.666;2023-01-26T00:43:53;2.90;85.80
33988;DHT22;37428;53.580;-1.666;2023-01-26T00:46:55;2.90;85.80
33988;DHT22;37428;53.580;-1.666;2023-01-26T00:49:59;2.90;85.50
33988;DHT22;37428;53.580;-1.666;2023-01-26T00:53:01;2.80;85.60
33988;DHT22;37428;53.580;-1.666;2023-01-26T00:56:04;2.80;85.70
33988;DHT22;37428;53.580;-1.666;2023-01-26T00:59:06;2.80;85.60
33988;DHT22;37428;53.580;-1.666;2023-01-26T01:02:08;2.70;85.70
33988;DHT22;37428;53.580;-1.666;2023-01-26T01:05:14;2.80;85.90
33988;DHT22;37428;53.580;-1.666;2023-01-26T01:08:16;2.80;86.00
33988;DHT22;37428;53.580;-1.666;2023-01-26T01:11:18;2.80;85.80
33988;DHT22;37428;53.580;-1.666;2023-01-26T01:14:21;2.90;85.40
33988;DHT22;37428;53.580;-1.666;2023-01-26T01:17:23;2.80;84.70
33988;DHT22;37428;53.580;-1.666;2023-01-26T01:20:26;2.70;84.60
33988;DHT22;37428;53.580;-1.666;2023-01-26T01:23:29;2.80;85.20
33988;DHT22;37428;53.580;-1.666;2023-01-26T01:26:31;2.70;84.80
33988;DHT22;37428;53.580;-1.666;2023-01-26T01:29:33;2.60;84.70
33988;DHT22;37428;53.580;-1.666;2023-01-26T01:32:36;2.50;85.50
33988;DHT22;37428;53.580;-1.666;2023-01-26T01:35:40;2.50;85.50
33988;DHT22;37428;53.580;-1.666;2023-01-26T01:38:44;2.40;86.10
33988;DHT22;37428;53.580;-1.666;2023-01-26T01:41:46;2.50;86.40
33988;DHT22;37428;53.580;-1.666;2023-01-26T01:45:28;2.50;85.40
33988;DHT22;37428;53.580;-1.666;2023-01-26T01:48:37;2.60;85.50
33988;DHT22;37428;53.580;-1.666;2023-01-26T01:51:48;2.60;85.90
33988;DHT22;37428;53.580;-1.666;2023-01-26T01:54:54;2.60;85.50
33988;DHT22;37428;53.580;-1.666;2023-01-26T01:57:59;2.60;85.50
33988;DHT22;37428;53.580;-1.666;2023-01-26T02:01:02;2.70;85.60
33988;DHT22;37428;53.580;-1.666;2023-01-26T02:04:05;2.70;85.10
33988;DHT22;37428;53.580;-1.666;2023-01-26T02:07:10;2.80;84.90
33988;DHT22;37428;53.580;-1.666;2023-01-26T02:10:15;2.80;84.70
33988;DHT22;37428;53.580;-1.666;2023-01-26T02:13:21;2.80;84.40
33988;DHT22;37428;53.580;-1.666;2023-01-26T02:16:23;2.80;84.70
33988;DHT22;37428;53.580;-1.666;2023-01-26T02:19:31;2.80;84.50
33988;DHT22;37428;53.580;-1.666;2023-01-26T02:22:44;2.80;84.30
33988;DHT22;37428;53.580;-1.666;2023-01-26T02:26:07;2.80;84.40
33988;DHT22;37428;53.580;-1.666;2023-01-26T02:29:10;2.80;84.40
33988;DHT22;37428;53.580;-1.666;2023-01-26T02:32:12;2.70;84.50
33988;DHT22;37428;53.580;-1.666;2023-01-26T02:35:15;2.80;84.80
33988;DHT22;37428;53.580;-1.666;2023-01-26T02:38:18;2.70;84.10
33988;DHT22;37428;53.580;-1.666;2023-01-26T02:41:24;2.70;84.20
33988;DHT22;37428;53.580;-1.666;2023-01-26T02:44:46;2.70;84.20
33988;DHT22;37428;53.580;-1.666;2023-01-26T02:47:48;2.70;84.60
33988;DHT22;37428;53.580;-1.666;2023-01-26T02:50:51;2.80;84.60
33988;DHT22;37428;53.580;-1.666;2023-01-26T02:53:52;2.90;84.20
33988;DHT22;37428;53.580;-1.666;2023-01-26T02:56:56;2.90;84.10
33988;DHT22;37428;53.580;-1.666;2023-01-26T02:59:57;3.00;84.00
33988;DHT22;37428;53.580;-1.666;2023-01-26T03:03:00;3.00;83.80
33988;DHT22;37428;53.580;-1.666;2023-01-26T03:06:03;3.10;83.70
33988;DHT22;37428;53.580;-1.666;2023-01-26T03:09:06;3.20;83.60
33988;DHT22;37428;53.580;-1.666;2023-01-26T03:12:09;3.20;83.60
33988;DHT22;37428;53.580;-1.666;2023-01-26T03:15:12;3.30;83.30
33988;DHT22;37428;53.580;-1.666;2023-01-26T03:18:33;3.30;82.90
33988;DHT22;37428;53.580;-1.666;2023-01-26T03:21:53;3.30;83.60
33988;DHT22;37428;53.580;-1.666;2023-01-26T03:25:12;3.30;83.00
33988;DHT22;37428;53.580;-1.666;2023-01-26T03:28:33;3.30;82.80
33988;DHT22;37428;53.580;-1.666;2023-01-26T03:31:36;3.40;82.40
33988;DHT22;37428;53.580;-1.666;2023-01-26T03:34:38;3.40;82.30
33988;DHT22;37428;53.580;-1.666;2023-01-26T03:37:41;3.40;82.10
33988;DHT22;37428;53.580;-1.666;2023-01-26T03:40:43;3.40;82.80
33988;DHT22;37428;53.580;-1.666;2023-01-26T03:44:06;3.40;82.30
33988;DHT22;37428;53.580;-1.666;2023-01-26T03:47:26;3.40;82.60
33988;DHT22;37428;53.580;-1.666;2023-01-26T03:50:45;3.50;82.80
33988;DHT22;37428;53.580;-1.666;2023-01-26T03:54:05;3.60;82.30
33988;DHT22;37428;53.580;-1.666;2023-01-26T03:57:24;3.60;82.10
33988;DHT22;37428;53.580;-1.666;2023-01-26T04:00:30;3.60;81.80
33988;DHT22;37428;53.580;-1.666;2023-01-26T04:03:33;3.60;81.80
33988;DHT22;37428;53.580;-1.666;2023-01-26T04:06:58;3.60;81.90
33988;DHT22;37428;53.580;-1.666;2023-01-26T04:10:17;3.60;82.30
33988;DHT22;37428;53.580;-1.666;2023-01-26T04:13:25;3.60;81.90
33988;DHT22;37428;53.580;-1.666;2023-01-26T04:16:46;3.60;82.00
33988;DHT22;37428;53.580;-1.666;2023-01-26T04:20:07;3.60;82.00
33988;DHT22;37428;53.580;-1.666;2023-01-26T04:23:26;3.70;82.00
33988;DHT22;37428;53.580;-1.666;2023-01-26T04:26:29;3.70;81.80
33988;DHT22;37428;53.580;-1.666;2023-01-26T04:29:34;3.80;81.60
33988;DHT22;37428;53.580;-1.666;2023-01-26T04:32:38;3.80;82.00
33988;DHT22;37428;53.580;-1.666;2023-01-26T04:35:40;3.90;81.50
33988;DHT22;37428;53.580;-1.666;2023-01-26T04:38:43;3.90;81.40
33988;DHT22;37428;53.580;-1.666;2023-01-26T04:41:45;3.80;80.70
33988;DHT22;37428;53.580;-1.666;2023-01-26T04:44:47;3.90;81.30
33988;DHT22;37428;53.580;-1.666;2023-01-26T04:47:51;3.90;81.20
33988;DHT22;37428;53.580;-1.666;2023-01-26T04:50:53;4.00;80.90
33988;DHT22;37428;53.580;-1.666;2023-01-26T04:53:56;3.90;80.80
33988;DHT22;37428;53.580;-1.666;2023-01-26T04:56:58;3.90;81.20
33988;DHT22;37428;53.580;-1.666;2023-01-26T05:00:00;4.00;80.90
33988;DHT22;37428;53.580;-1.666;2023-01-26T05:03:05;4.00;81.00
33988;DHT22;37428;53.580;-1.666;2023-01-26T05:06:07;4.00;80.80
33988;DHT22;37428;53.580;-1.666;2023-01-26T05:09:09;4.10;80.40
33988;DHT22;37428;53.580;-1.666;2023-01-26T05:12:11;3.90;80.40
33988;DHT22;37428;53.580;-1.666;2023-01-26T05:15:31;4.00;81.00
33988;DHT22;37428;53.580;-1.666;2023-01-26T05:18:35;4.00;81.20
33988;DHT22;37428;53.580;-1.666;2023-01-26T05:21:37;4.00;80.90
33988;DHT22;37428;53.580;-1.666;2023-01-26T05:24:39;4.10;81.50
33988;DHT22;37428;53.580;-1.666;2023-01-26T05:27:41;4.00;80.80
33988;DHT22;37428;53.580;-1.666;2023-01-26T05:30:43;4.00;81.10
33988;DHT22;37428;53.580;-1.666;2023-01-26T05:33:47;4.00;81.20
33988;DHT22;37428;53.580;-1.666;2023-01-26T05:36:49;4.00;81.10
33988;DHT22;37428;53.580;-1.666;2023-01-26T05:39:51;4.00;81.30
33988;DHT22;37428;53.580;-1.666;2023-01-26T05:42:54;4.00;82.00
33988;DHT22;37428;53.580;-1.666;2023-01-26T05:45:56;4.00;81.50
33988;DHT22;37428;53.580;-1.666;2023-01-26T05:49:00;4.00;81.30
33988;DHT22;37428;53.580;-1.666;2023-01-26T05:52:06;4.00;81.80
33988;DHT22;37428;53.580;-1.666;2023-01-26T05:55:09;4.00;82.00
33988;DHT22;37428;53.580;-1.666;2023-01-26T05:58:11;4.10;81.80
33988;DHT22;37428;53.580;-1.666;2023-01-26T06:01:13;4.10;81.70
33988;DHT22;37428;53.580;-1.666;2023-01-26T06:04:16;4.10;81.90
33988;DHT22;37428;53.580;-1.666;2023-01-26T06:07:18;4.10;82.10
33988;DHT22;37428;53.580;-1.666;2023-01-26T06:10:21;4.10;82.10
33988;DHT22;37428;53.580;-1.666;2023-01-26T06:13:23;4.20;82.30
33988;DHT22;37428;53.580;-1.666;2023-01-26T06:16:25;4.20;81.90
33988;DHT22;37428;53.580;-1.666;2023-01-26T06:19:29;4.20;81.50
33988;DHT22;37428;53.580;-1.666;2023-01-26T06:22:31;4.20;81.50
33988;DHT22;37428;53.580;-1.666;2023-01-26T06:25:33;4.20;82.10
33988;DHT22;37428;53.580;-1.666;2023-01-26T06:28:35;4.10;82.70
33988;DHT22;37428;53.580;-1.666;2023-01-26T06:31:38;4.20;83.20
33988;DHT22;37428;53.580;-1.666;2023-01-26T06:34:42;4.10;83.80
33988;DHT22;37428;53.580;-1.666;2023-01-26T06:37:47;4.10;84.50
33988;DHT22;37428;53.580;-1.666;2023-01-26T06:40:49;4.20;85.10
33988;DHT22;37428;53.580;-1.666;2023-01-26T06:43:52;4.20;85.30
33988;DHT22;37428;53.580;-1.666;2023-01-26T06:46:54;4.20;85.50
33988;DHT22;37428;53.580;-1.666;2023-01-26T06:49:58;4.20;85.30
33988;DHT22;37428;53.580;-1.666;2023-01-26T06:53:03;4.20;85.50
33988;DHT22;37428;53.580;-1.666;2023-01-26T06:56:06;4.20;85.30
33988;DHT22;37428;53.580;-1.666;2023-01-26T06:59:08;4.20;85.00
33988;DHT22;37428;53.580;-1.666;2023-01-26T07:02:11;4.20;85.30
33988;DHT22;37428;53.580;-1.666;2023-01-26T07:05:18;4.30;84.90
33988;DHT22;37428;53.580;-1.666;2023-01-26T07:08:24;4.30;84.90
33988;DHT22;37428;53.580;-1.666;2023-01-26T07:11:27;4.20;85.30
33988;DHT22;37428;53.580;-1.666;2023-01-26T07:14:32;4.30;85.70
33988;DHT22;37428;53.580;-1.666;2023-01-26T07:17:34;4.30;84.90
33988;DHT22;37428;53.580;-1.666;2023-01-26T07:20:38;4.30;85.10
33988;DHT22;37428;53.580;-1.666;2023-01-26T07:23:40;4.30;84.90
33988;DHT22;37428;53.580;-1.666;2023-01-26T07:26:42;4.40;84.90
33988;DHT22;37428;53.580;-1.666;2023-01-26T07:29:44;4.40;84.70
33988;DHT22;37428;53.580;-1.666;2023-01-26T07:32:46;4.40;84.50
33988;DHT22;37428;53.580;-1.666;2023-01-26T07:35:53;4.40;84.60
33988;DHT22;37428;53.580;-1.666;2023-01-26T07:38:56;4.40;84.30
33988;DHT22;37428;53.580;-1.666;2023-01-26T07:41:57;4.40;84.30
33988;DHT22;37428;53.580;-1.666;2023-01-26T07:45:00;4.40;84.40
33988;DHT22;37428;53.580;-1.666;2023-01-26T07:48:02;4.30;84.60
33988;DHT22;37428;53.580;-1.666;2023-01-26T07:51:06;4.30;84.40
33988;DHT22;37428;53.580;-1.666;2023-01-26T07:54:10;4.40;84.50
33988;DHT22;37428;53.580;-1.666;2023-01-26T07:57:12;4.40;84.90
33988;DHT22;37428;53.580;-1.666;2023-01-26T08:00:15;4.40;85.00
33988;DHT22;37428;53.580;-1.666;2023-01-26T08:03:18;4.40;85.00
33988;DHT22;37428;53.580;-1.666;2023-01-26T08:06:22;4.40;85.10
33988;DHT22;37428;53.580;-1.666;2023-01-26T08:09:24;4.40;85.00
33988;DHT22;37428;53.580;-1.666;2023-01-26T08:12:27;4.40;85.70
33988;DHT22;37428;53.580;-1.666;2023-01-26T08:15:29;4.40;85.90
33988;DHT22;37428;53.580;-1.666;2023-01-26T08:18:31;4.40;85.90
33988;DHT22;37428;53.580;-1.666;2023-01-26T08:21:35;4.40;86.30
33988;DHT22;37428;53.580;-1.666;2023-01-26T08:24:37;4.40;86.70
33988;DHT22;37428;53.580;-1.666;2023-01-26T08:27:39;4.40;86.90
33988;DHT22;37428;53.580;-1.666;2023-01-26T08:30:41;4.50;87.10
33988;DHT22;37428;53.580;-1.666;2023-01-26T08:33:44;4.50;87.00
33988;DHT22;37428;53.580;-1.666;2023-01-26T08:36:48;4.50;87.30
33988;DHT22;37428;53.580;-1.666;2023-01-26T08:39:50;4.50;87.60
33988;DHT22;37428;53.580;-1.666;2023-01-26T08:42:52;4.50;87.60
33988;DHT22;37428;53.580;-1.666;2023-01-26T08:45:55;4.50;87.90
33988;DHT22;37428;53.580;-1.666;2023-01-26T08:48:57;4.50;88.10
33988;DHT22;37428;53.580;-1.666;2023-01-26T08:52:01;4.60;88.00
33988;DHT22;37428;53.580;-1.666;2023-01-26T08:55:04;4.60;87.90
33988;DHT22;37428;53.580;-1.666;2023-01-26T08:58:06;4.70;87.80
33988;DHT22;37428;53.580;-1.666;2023-01-26T09:01:11;4.70;87.80
33988;DHT22;37428;53.580;-1.666;2023-01-26T09:04:13;4.70;87.50
33988;DHT22;37428;53.580;-1.666;2023-01-26T09:07:17;4.70;87.40
33988;DHT22;37428;53.580;-1.666;2023-01-26T09:10:19;4.70;87.70
33988;DHT22;37428;53.580;-1.666;2023-01-26T09:13:22;4.70;87.70
33988;DHT22;37428;53.580;-1.666;2023-01-26T09:16:24;4.70;87.80
33988;DHT22;37428;53.580;-1.666;2023-01-26T09:19:26;4.70;87.90
33988;DHT22;37428;53.580;-1.666;2023-01-26T09:22:30;4.70;88.10
33988;DHT22;37428;53.580;-1.666;2023-01-26T09:25:35;4.70;88.10
33988;DHT22;37428;53.580;-1.666;2023-01-26T09:28:37;4.80;88.30
33988;DHT22;37428;53.580;-1.666;2023-01-26T09:31:40;4.80;88.70
33988;DHT22;37428;53.580;-1.666;2023-01-26T09:34:42;4.80;89.10
33988;DHT22;37428;53.580;-1.666;2023-01-26T09:37:46;4.90;89.50
33988;DHT22;37428;53.580;-1.666;2023-01-26T09:40:56;4.90;89.90
33988;DHT22;37428;53.580;-1.666;2023-01-26T09:44:05;5.00;89.80
33988;DHT22;37428;53.580;-1.666;2023-01-26T09:47:13;5.00;89.90
33988;DHT22;37428;53.580;-1.666;2023-01-26T09:50:19;5.00;89.90
33988;DHT22;37428;53.580;-1.666;2023-01-26T09:53:26;5.10;90.20
33988;DHT22;37428;53.580;-1.666;2023-01-26T09:56:30;5.30;89.70
33988;DHT22;37428;53.580;-1.666;2023-01-26T09:59:38;5.40;89.30
33988;DHT22;37428;53.580;-1.666;2023-01-26T10:02:52;5.40;88.50
33988;DHT22;37428;53.580;-1.666;2023-01-26T10:06:00;5.40;88.20
33988;DHT22;37428;53.580;-1.666;2023-01-26T10:09:13;5.40;88.20
33988;DHT22;37428;53.580;-1.666;2023-01-26T10:12:20;5.50;87.80
33988;DHT22;37428;53.580;-1.666;2023-01-26T10:15:28;5.50;88.10
33988;DHT22;37428;53.580;-1.666;2023-01-26T10:18:35;5.50;88.10
33988;DHT22;37428;53.580;-1.666;2023-01-26T10:21:40;5.40;87.90
33988;DHT22;37428;53.580;-1.666;2023-01-26T10:24:47;5.40;88.10
33988;DHT22;37428;53.580;-1.666;2023-01-26T10:27:50;5.40;88.30
33988;DHT22;37428;53.580;-1.666;2023-01-26T10:30:52;5.40;88.10
33988;DHT22;37428;53.580;-1.666;2023-01-26T10:33:55;5.40;87.70
33988;DHT22;37428;53.580;-1.666;2023-01-26T10:37:08;5.50;87.90
33988;DHT22;37428;53.580;-1.666;2023-01-26T10:40:15;5.50;88.00
33988;DHT22;37428;53.580;-1.666;2023-01-26T10:43:18;5.50;87.80
33988;DHT22;37428;53.580;-1.666;2023-01-26T10:46:28;5.50;88.00
33988;DHT22;37428;53.580;-1.666;2023-01-26T10:49:31;5.50;87.20
33988;DHT22;37428;53.580;-1.666;2023-01-26T10:52:33;5.60;87.60
33988;DHT22;37428;53.580;-1.666;2023-01-26T10:55:37;5.60;87.70
33988;DHT22;37428;53.580;-1.666;2023-01-26T10:58:44;5.60;87.50
33988;DHT22;37428;53.580;-1.666;2023-01-26T11:01:52;5.70;87.40
33988;DHT22;37428;53.580;-1.666;2023-01-26T11:05:19;5.60;87.10
33988;DHT22;37428;53.580;-1.666;2023-01-26T11:08:33;5.70;87.10
33988;DHT22;37428;53.580;-1.666;2023-01-26T11:11:36;5.70;85.70
33988;DHT22;37428;53.580;-1.666;2023-01-26T11:14:39;5.70;85.20
33988;DHT22;37428;53.580;-1.666;2023-01-26T11:17:47;5.70;84.90
33988;DHT22;37428;53.580;-1.666;2023-01-26T11:20:55;5.80;84.60
33988;DHT22;37428;53.580;-1.666;2023-01-26T11:24:02;5.90;84.20
33988;DHT22;37428;53.580;-1.666;2023-01-26T11:27:14;6.00;83.10
33988;DHT22;37428;53.580;-1.666;2023-01-26T11:30:42;6.00;82.70
33988;DHT22;37428;53.580;-1.666;2023-01-26T11:33:55;6.10;82.40
33988;DHT22;37428;53.580;-1.666;2023-01-26T11:40:45;6.20;80.80
33988;DHT22;37428;53.580;-1.666;2023-01-26T11:47:34;6.20;80.50
33988;DHT22;37428;53.580;-1.666;2023-01-26T11:50:42;6.30;80.40
33988;DHT22;37428;53.580;-1.666;2023-01-26T11:54:02;6.30;80.10
33988;DHT22;37428;53.580;-1.666;2023-01-26T11:57:18;6.30;79.80
33988;DHT22;37428;53.580;-1.666;2023-01-26T12:00:36;6.30;79.30
33988;DHT22;37428;53.580;-1.666;2023-01-26T12:03:43;6.30;78.80
33988;DHT22;37428;53.580;-1.666;2023-01-26T12:06:49;6.40;79.20
33988;DHT22;37428;53.580;-1.666;2023-01-26T12:09:55;6.40;79.00
33988;DHT22;37428;53.580;-1.666;2023-01-26T12:13:04;6.40;78.30
33988;DHT22;37428;53.580;-1.666;2023-01-26T12:16:16;6.30;77.90
33988;DHT22;37428;53.580;-1.666;2023-01-26T12:19:31;6.40;78.30
33988;DHT22;37428;53.580;-1.666;2023-01-26T12:22:37;6.50;77.20
33988;DHT22;37428;53.580;-1.666;2023-01-26T12:25:41;6.60;76.90
33988;DHT22;37428;53.580;-1.666;2023-01-26T12:28:48;6.60;76.40
33988;DHT22;37428;53.580;-1.666;2023-01-26T12:31:57;6.60;76.20
33988;DHT22;37428;53.580;-1.666;2023-01-26T12:35:02;6.70;76.30
33988;DHT22;37428;53.580;-1.666;2023-01-26T12:38:09;7.00;75.50
33988;DHT22;37428;53.580;-1.666;2023-01-26T12:41:20;7.40;75.20
33988;DHT22;37428;53.580;-1.666;2023-01-26T12:44:35;7.40;73.40
33988;DHT22;37428;53.580;-1.666;2023-01-26T12:47:42;7.40;73.70
33988;DHT22;37428;53.580;-1.666;2023-01-26T12:50:48;7.30;73.00
33988;DHT22;37428;53.580;-1.666;2023-01-26T12:53:57;7.10;73.40
33988;DHT22;37428;53.580;-1.666;2023-01-26T12:57:03;6.90;73.80
33988;DHT22;37428;53.580;-1.666;2023-01-26T13:00:17;6.80;74.60
33988;DHT22;37428;53.580;-1.666;2023-01-26T13:03:23;6.60;75.20
33988;DHT22;37428;53.580;-1.666;2023-01-26T13:06:27;6.50;76.10
33988;DHT22;37428;53.580;-1.666;2023-01-26T13:09:30;6.50;76.70
33988;DHT22;37428;53.580;-1.666;2023-01-26T13:12:46;6.40;76.90
33988;DHT22;37428;53.580;-1.666;2023-01-26T13:19:50;6.30;77.50
33988;DHT22;37428;53.580;-1.666;2023-01-26T13:22:53;6.30;78.20
33988;DHT22;37428;53.580;-1.666;2023-01-26T13:26:15;6.20;78.40
33988;DHT22;37428;53.580;-1.666;2023-01-26T13:29:28;6.20;78.80
33988;DHT22;37428;53.580;-1.666;2023-01-26T13:32:54;6.10;78.40
33988;DHT22;37428;53.580;-1.666;2023-01-26T13:36:09;6.10;78.50
33988;DHT22;37428;53.580;-1.666;2023-01-26T13:39:17;6.10;79.00
33988;DHT22;37428;53.580;-1.666;2023-01-26T13:42:26;6.10;78.80
33988;DHT22;37428;53.580;-1.666;2023-01-26T13:45:34;6.20;78.50
33988;DHT22;37428;53.580;-1.666;2023-01-26T13:48:46;6.10;78.60
33988;DHT22;37428;53.580;-1.666;2023-01-26T13:51:49;6.10;79.00
33988;DHT22;37428;53.580;-1.666;2023-01-26T13:54:53;6.10;79.00
33988;DHT22;37428;53.580;-1.666;2023-01-26T13:58:09;6.00;79.50
33988;DHT22;37428;53.580;-1.666;2023-01-26T14:01:13;6.00;79.70
33988;DHT22;37428;53.580;-1.666;2023-01-26T14:04:20;5.90;79.70
33988;DHT22;37428;53.580;-1.666;2023-01-26T14:07:27;5.90;79.00
33988;DHT22;37428;53.580;-1.666;2023-01-26T14:10:30;5.80;79.40
33988;DHT22;37428;53.580;-1.666;2023-01-26T14:13:35;5.80;79.80
33988;DHT22;37428;53.580;-1.666;2023-01-26T14:16:37;5.80;80.40
33988;DHT22;37428;53.580;-1.666;2023-01-26T14:19:40;5.70;80.50
33988;DHT22;37428;53.580;-1.666;2023-01-26T14:22:44;5.70;80.80
33988;DHT22;37428;53.580;-1.666;2023-01-26T14:25:56;5.70;81.30
33988;DHT22;37428;53.580;-1.666;2023-01-26T14:28:59;5.70;81.60
33988;DHT22;37428;53.580;-1.666;2023-01-26T14:32:03;5.60;82.00
33988;DHT22;37428;53.580;-1.666;2023-01-26T14:35:18;5.60;82.50
33988;DHT22;37428;53.580;-1.666;2023-01-26T14:38:24;5.50;81.80
33988;DHT22;37428;53.580;-1.666;2023-01-26T14:41:30;5.50;81.80
33988;DHT22;37428;53.580;-1.666;2023-01-26T14:44:34;5.50;81.80
33988;DHT22;37428;53.580;-1.666;2023-01-26T14:47:36;5.60;81.70
33988;DHT22;37428;53.580;-1.666;2023-01-26T14:50:39;5.60;81.70
33988;DHT22;37428;53.580;-1.666;2023-01-26T14:53:49;5.60;81.80
33988;DHT22;37428;53.580;-1.666;2023-01-26T14:56:52;5.60;81.40
33988;DHT22;37428;53.580;-1.666;2023-01-26T14:59:56;5.60;81.10
33988;DHT22;37428;53.580;-1.666;2023-01-26T15:03:03;5.60;81.30
33988;DHT22;37428;53.580;-1.666;2023-01-26T15:06:17;5.70;81.50
33988;DHT22;37428;53.580;-1.666;2023-01-26T15:09:25;5.60;81.20
33988;DHT22;37428;53.580;-1.666;2023-01-26T15:12:32;5.70;81.30
33988;DHT22;37428;53.580;-1.666;2023-01-26T15:15:36;5.70;81.20
33988;DHT22;37428;53.580;-1.666;2023-01-26T15:18:39;5.70;81.60
33988;DHT22;37428;53.580;-1.666;2023-01-26T15:21:41;5.60;81.20
33988;DHT22;37428;53.580;-1.666;2023-01-26T15:24:46;5.60;81.30
33988;DHT22;37428;53.580;-1.666;2023-01-26T15:27:50;5.50;80.80
33988;DHT22;37428;53.580;-1.666;2023-01-26T15:30:54;5.50;80.20
33988;DHT22;37428;53.580;-1.666;2023-01-26T15:33:57;5.50;79.70
33988;DHT22;37428;53.580;-1.666;2023-01-26T15:37:02;5.50;79.40
33988;DHT22;37428;53.580;-1.666;2023-01-26T15:40:07;5.40;78.10
33988;DHT22;37428;53.580;-1.666;2023-01-26T15:43:11;5.40;78.00
33988;DHT22;37428;53.580;-1.666;2023-01-26T15:46:13;5.40;77.70
33988;DHT22;37428;53.580;-1.666;2023-01-26T15:49:15;5.40;77.50
33988;DHT22;37428;53.580;-1.666;2023-01-26T15:52:24;5.40;76.40
33988;DHT22;37428;53.580;-1.666;2023-01-26T15:55:32;5.30;75.60
33988;DHT22;37428;53.580;-1.666;2023-01-26T15:58:34;5.30;74.60
33988;DHT22;37428;53.580;-1.666;2023-01-26T16:01:36;5.20;75.20
33988;DHT22;37428;53.580;-1.666;2023-01-26T16:04:39;5.20;75.20
33988;DHT22;37428;53.580;-1.666;2023-01-26T16:07:41;5.20;75.10
33988;DHT22;37428;53.580;-1.666;2023-01-26T16:10:45;5.20;74.80
33988;DHT22;37428;53.580;-1.666;2023-01-26T16:13:47;5.20;74.90
33988;DHT22;37428;53.580;-1.666;2023-01-26T16:16:52;5.10;74.90
33988;DHT22;37428;53.580;-1.666;2023-01-26T16:19:54;5.10;74.70
33988;DHT22;37428;53.580;-1.666;2023-01-26T16:22:56;5.10;74.40
33988;DHT22;37428;53.580;-1.666;2023-01-26T16:26:00;5.00;74.50
33988;DHT22;37428;53.580;-1.666;2023-01-26T16:29:03;5.10;74.40
33988;DHT22;37428;53.580;-1.666;2023-01-26T16:32:14;5.00;74.80
33988;DHT22;37428;53.580;-1.666;2023-01-26T16:35:21;5.10;74.60
33988;DHT22;37428;53.580;-1.666;2023-01-26T16:38:24;5.10;74.80
33988;DHT22;37428;53.580;-1.666;2023-01-26T16:41:30;5.10;74.70
33988;DHT22;37428;53.580;-1.666;2023-01-26T16:44:32;5.10;74.30
33988;DHT22;37428;53.580;-1.666;2023-01-26T16:47:35;5.10;74.40
33988;DHT22;37428;53.580;-1.666;2023-01-26T16:50:37;5.10;74.60
33988;DHT22;37428;53.580;-1.666;2023-01-26T16:53:39;5.10;74.50
33988;DHT22;37428;53.580;-1.666;2023-01-26T16:56:42;5.00;74.20
33988;DHT22;37428;53.580;-1.666;2023-01-26T16:59:45;5.00;74.10
33988;DHT22;37428;53.580;-1.666;2023-01-26T17:02:49;5.00;73.80
33988;DHT22;37428;53.580;-1.666;2023-01-26T17:05:52;5.00;74.20
33988;DHT22;37428;53.580;-1.666;2023-01-26T17:08:54;5.00;74.40
33988;DHT22;37428;53.580;-1.666;2023-01-26T17:11:58;5.00;74.10
33988;DHT22;37428;53.580;-1.666;2023-01-26T17:15:00;5.00;74.00
33988;DHT22;37428;53.580;-1.666;2023-01-26T17:18:02;5.00;73.60
33988;DHT22;37428;53.580;-1.666;2023-01-26T17:21:05;4.90;72.60
33988;DHT22;37428;53.580;-1.666;2023-01-26T17:24:08;4.80;72.50
33988;DHT22;37428;53.580;-1.666;2023-01-26T17:27:11;4.70;72.70
33988;DHT22;37428;53.580;-1.666;2023-01-26T17:30:15;4.70;73.20
33988;DHT22;37428;53.580;-1.666;2023-01-26T17:33:17;4.60;73.40
33988;DHT22;37428;53.580;-1.666;2023-01-26T17:36:19;4.50;73.70
33988;DHT22;37428;53.580;-1.666;2023-01-26T17:39:21;4.50;74.60
33988;DHT22;37428;53.580;-1.666;2023-01-26T17:42:25;4.50;74.70
33988;DHT22;37428;53.580;-1.666;2023-01-26T17:45:28;4.40;74.40
33988;DHT22;37428;53.580;-1.666;2023-01-26T17:48:30;4.30;74.20
33988;DHT22;37428;53.580;-1.666;2023-01-26T17:51:32;4.20;74.20
33988;DHT22;37428;53.580;-1.666;2023-01-26T17:54:34;4.20;74.20
33988;DHT22;37428;53.580;-1.666;2023-01-26T17:57:38;4.10;74.50
33988;DHT22;37428;53.580;-1.666;2023-01-26T18:00:40;4.10;74.70
33988;DHT22;37428;53.580;-1.666;2023-01-26T18:03:43;4.10;74.80
33988;DHT22;37428;53.580;-1.666;2023-01-26T18:06:46;4.10;75.30
33988;DHT22;37428;53.580;-1.666;2023-01-26T18:09:48;4.20;75.50
33988;DHT22;37428;53.580;-1.666;2023-01-26T18:12:52;4.20;75.50
33988;DHT22;37428;53.580;-1.666;2023-01-26T18:15:54;4.20;75.60
33988;DHT22;37428;53.580;-1.666;2023-01-26T18:18:57;4.30;75.60
33988;DHT22;37428;53.580;-1.666;2023-01-26T18:22:00;4.30;75.90
33988;DHT22;37428;53.580;-1.666;2023-01-26T18:25:03;4.30;75.80
33988;DHT22;37428;53.580;-1.666;2023-01-26T18:28:06;4.30;75.80
33988;DHT22;37428;53.580;-1.666;2023-01-26T18:31:10;4.30;76.10
33988;DHT22;37428;53.580;-1.666;2023-01-26T18:34:12;4.30;76.20
33988;DHT22;37428;53.580;-1.666;2023-01-26T18:37:14;4.30;76.40
33988;DHT22;37428;53.580;-1.666;2023-01-26T18:40:17;4.30;76.40
33988;DHT22;37428;53.580;-1.666;2023-01-26T18:43:21;4.30;76.60
33988;DHT22;37428;53.580;-1.666;2023-01-26T18:46:24;4.30;77.10
33988;DHT22;37428;53.580;-1.666;2023-01-26T18:49:27;4.30;77.50
33988;DHT22;37428;53.580;-1.666;2023-01-26T18:52:29;4.20;77.40
33988;DHT22;37428;53.580;-1.666;2023-01-26T18:55:31;4.10;77.60
33988;DHT22;37428;53.580;-1.666;2023-01-26T18:58:35;4.00;78.10
33988;DHT22;37428;53.580;-1.666;2023-01-26T19:01:38;4.00;78.30
33988;DHT22;37428;53.580;-1.666;2023-01-26T19:04:41;3.90;78.60
33988;DHT22;37428;53.580;-1.666;2023-01-26T19:07:44;4.00;79.40
33988;DHT22;37428;53.580;-1.666;2023-01-26T19:10:46;4.00;79.00
33988;DHT22;37428;53.580;-1.666;2023-01-26T19:13:50;3.90;79.10
33988;DHT22;37428;53.580;-1.666;2023-01-26T19:16:52;3.90;79.40
33988;DHT22;37428;53.580;-1.666;2023-01-26T19:19:54;3.90;79.60
33988;DHT22;37428;53.580;-1.666;2023-01-26T19:22:56;3.90;80.00
33988;DHT22;37428;53.580;-1.666;2023-01-26T19:25:58;4.00;80.20
33988;DHT22;37428;53.580;-1.666;2023-01-26T19:29:02;4.00;80.40
33988;DHT22;37428;53.580;-1.666;2023-01-26T19:32:05;4.00;80.20
33988;DHT22;37428;53.580;-1.666;2023-01-26T19:35:07;4.00;80.40
33988;DHT22;37428;53.580;-1.666;2023-01-26T19:38:09;4.10;80.50
33988;DHT22;37428;53.580;-1.666;2023-01-26T19:41:12;4.20;80.20